createdAt,value
2018-02-08T00:02:21.271Z,20.23
2018-02-08T00:04:48.798Z,19.00
2018-02-08T00:07:16.303Z,19.87
2018-02-08T00:09:43.825Z,20.57
2018-02-08T00:12:11.367Z,18.90
2018-02-08T00:14:38.900Z,19.50
2018-02-08T00:17:07.175Z,21.13
2018-02-08T00:19:35.479Z,19.20
2018-02-08T00:22:02.995Z,20.67
2018-02-08T00:24:30.579Z,22.77
2018-02-08T00:26:58.099Z,19.53
2018-02-08T00:29:25.606Z,20.20
2018-02-08T00:31:53.134Z,21.90
2018-02-08T00:34:20.656Z,20.97
2018-02-08T00:36:48.187Z,20.30
2018-02-08T00:39:15.699Z,20.17
2018-02-08T00:41:43.223Z,20.17
2018-02-08T00:44:10.762Z,19.40
2018-02-08T00:46:38.319Z,19.30
2018-02-08T00:49:06.587Z,19.53
2018-02-08T00:51:34.871Z,20.03
2018-02-08T00:54:03.143Z,19.83
2018-02-08T00:56:31.448Z,19.30
2018-02-08T00:58:58.974Z,20.60
2018-02-08T01:01:27.264Z,20.30
2018-02-08T01:03:55.555Z,19.47
2018-02-08T01:06:23.086Z,20.20
2018-02-08T01:08:51.356Z,20.00
2018-02-08T01:11:18.899Z,20.07
2018-02-08T01:13:46.398Z,18.20
2018-02-08T01:16:14.675Z,20.00
2018-02-08T01:18:42.963Z,20.07
2018-02-08T01:21:10.467Z,20.87
2018-02-08T01:23:38.057Z,18.97
2018-02-08T01:26:06.341Z,18.90
2018-02-08T01:28:34.628Z,21.33
2018-02-08T01:31:02.898Z,19.70
2018-02-08T01:33:31.191Z,19.40
2018-02-08T01:35:58.711Z,19.70
2018-02-08T01:38:26.245Z,21.33
2018-02-08T01:40:53.759Z,19.97
2018-02-08T01:43:22.070Z,20.23
2018-02-08T01:45:49.576Z,20.93
2018-02-08T01:48:17.127Z,20.07
2018-02-08T01:50:44.646Z,19.47
2018-02-08T01:53:12.175Z,20.97
2018-02-08T01:55:40.446Z,21.17
2018-02-08T01:58:08.747Z,21.77
2018-02-08T02:00:36.267Z,20.50
2018-02-08T02:03:03.790Z,22.30
2018-02-08T02:05:31.318Z,21.40
2018-02-08T02:07:59.623Z,19.43
2018-02-08T02:10:27.181Z,21.57
2018-02-08T02:12:54.688Z,21.83
2018-02-08T02:15:22.211Z,20.30
2018-02-08T02:17:49.746Z,20.60
2018-02-08T02:20:18.114Z,21.60
2018-02-08T02:22:46.390Z,22.50
2018-02-08T02:25:14.675Z,21.70
2018-02-08T02:27:42.198Z,22.73
2018-02-08T02:30:09.731Z,23.77
2018-02-08T02:32:37.247Z,22.17
2018-02-08T02:35:05.542Z,23.40
2018-02-08T02:37:33.056Z,23.83
2018-02-08T02:40:00.595Z,22.90
2018-02-08T02:42:28.121Z,20.63
2018-02-08T02:44:55.627Z,22.70
2018-02-08T02:47:23.151Z,25.30
2018-02-08T02:49:50.667Z,22.07
2018-02-08T02:52:18.963Z,22.97
2018-02-08T02:54:47.236Z,23.57
2018-02-08T02:57:15.528Z,24.70
2018-02-08T02:59:43.039Z,21.30
2018-02-08T03:02:10.646Z,23.77
2018-02-08T03:04:38.151Z,22.57
2018-02-08T03:07:05.688Z,23.20
2018-02-08T03:09:33.204Z,24.20
2018-02-08T03:12:01.502Z,23.00
2018-02-08T03:14:29.020Z,23.70
2018-02-08T03:16:56.544Z,24.13
2018-02-08T03:19:24.058Z,25.37
2018-02-08T03:21:51.574Z,23.77
2018-02-08T03:24:19.104Z,24.10
2018-02-08T03:26:46.623Z,24.73
2018-02-08T03:29:14.135Z,24.30
2018-02-08T03:31:41.679Z,23.53
2018-02-08T03:34:09.947Z,23.40
2018-02-08T03:36:38.239Z,25.13
2018-02-08T03:39:05.759Z,25.47
2018-02-08T03:41:33.270Z,24.83
2018-02-08T03:44:00.802Z,25.10
2018-02-08T03:46:29.078Z,27.67
2018-02-08T03:48:57.362Z,26.77
2018-02-08T03:51:25.634Z,26.20
2018-02-08T03:53:53.915Z,23.47
2018-02-08T03:56:22.191Z,24.23
2018-02-08T03:58:50.483Z,26.20
2018-02-08T04:01:17.991Z,24.23
2018-02-08T04:03:45.514Z,24.93
2018-02-08T04:06:13.026Z,24.27
2018-02-08T04:08:40.551Z,25.33
2018-02-08T04:11:08.060Z,25.07
2018-02-08T04:13:36.356Z,26.63
2018-02-08T04:16:03.864Z,25.17
2018-02-08T04:18:31.383Z,27.37
2018-02-08T04:20:58.901Z,25.30
2018-02-08T04:23:26.403Z,26.60
2018-02-08T04:25:53.927Z,26.80
2018-02-08T04:28:21.431Z,25.77
2018-02-08T04:30:48.955Z,26.07
2018-02-08T04:33:17.227Z,25.07
2018-02-08T04:35:45.524Z,26.90
2018-02-08T04:38:17.586Z,25.70
2018-02-08T04:40:57.627Z,26.37
2018-02-08T04:43:37.735Z,28.30
2018-02-08T04:46:16.915Z,26.10
2018-02-08T04:48:45.192Z,26.70
2018-02-08T04:51:13.478Z,25.93
2018-02-08T04:53:41.747Z,25.70
2018-02-08T04:56:10.039Z,26.00
2018-02-08T04:58:38.311Z,26.77
2018-02-08T05:01:06.603Z,25.20
2018-02-08T05:03:34.107Z,24.67
2018-02-08T05:06:01.650Z,24.23
2018-02-08T05:08:29.160Z,25.27
2018-02-08T05:10:57.447Z,26.50
2018-02-08T05:13:25.715Z,26.30
2018-02-08T05:15:54.007Z,25.70
2018-02-08T05:18:22.298Z,25.37
2018-02-08T05:20:49.814Z,25.30
2018-02-08T05:23:17.347Z,26.83
2018-02-08T05:25:44.871Z,25.83
2018-02-08T05:28:12.383Z,25.50
2018-02-08T05:30:39.914Z,26.23
2018-02-08T05:33:07.446Z,26.23
2018-02-08T05:35:35.728Z,25.77
2018-02-08T05:38:03.235Z,26.00
2018-02-08T05:40:30.778Z,24.43
2018-02-08T05:42:58.311Z,24.27
2018-02-08T05:45:25.819Z,26.53
2018-02-08T05:47:54.107Z,25.73
2018-02-08T05:50:21.610Z,25.57
2018-02-08T05:52:49.135Z,23.83
2018-02-08T05:55:16.641Z,26.10
2018-02-08T05:57:44.164Z,24.30
2018-02-08T06:00:12.433Z,23.20
2018-02-08T06:02:39.969Z,23.93
2018-02-08T06:05:07.471Z,22.97
2018-02-08T06:07:35.754Z,25.80
2018-02-08T06:10:04.062Z,23.87
2018-02-08T06:12:31.587Z,23.83
2018-02-08T06:14:59.868Z,25.30
2018-02-08T06:17:28.168Z,24.30
2018-02-08T06:19:55.671Z,23.93
2018-02-08T06:22:23.207Z,23.83
2018-02-08T06:24:50.720Z,21.60
2018-02-08T06:27:19.011Z,23.67
2018-02-08T06:29:46.538Z,21.80
2018-02-08T06:32:14.068Z,22.47
2018-02-08T06:34:41.579Z,23.43
2018-02-08T06:37:09.903Z,22.63
2018-02-08T06:39:37.436Z,22.07
2018-02-08T06:42:04.946Z,22.00
2018-02-08T06:44:32.463Z,24.40
2018-02-08T06:46:59.971Z,23.33
2018-02-08T06:49:27.500Z,23.30
2018-02-08T06:51:55.016Z,22.30
2018-02-08T06:54:23.303Z,24.03
2018-02-08T06:56:50.829Z,22.70
2018-02-08T06:59:18.355Z,22.07
2018-02-08T07:01:45.860Z,23.43
2018-02-08T07:04:14.162Z,22.57
2018-02-08T07:06:41.690Z,23.77
2018-02-08T07:09:09.223Z,21.13
2018-02-08T07:11:36.730Z,21.60
2018-02-08T07:14:05.019Z,23.80
2018-02-08T07:16:32.527Z,23.57
2018-02-08T07:19:00.068Z,21.80
2018-02-08T07:21:27.628Z,22.67
2018-02-08T07:23:55.191Z,22.50
2018-02-08T07:26:22.725Z,22.17
2018-02-08T07:28:50.240Z,22.50
2018-02-08T07:31:17.763Z,21.27
2018-02-08T07:33:45.267Z,20.63
2018-02-08T07:36:12.786Z,22.13
2018-02-08T07:38:40.287Z,21.27
2018-02-08T07:41:07.818Z,21.30
2018-02-08T07:43:35.323Z,20.83
2018-02-08T07:46:03.607Z,18.90
2018-02-08T07:48:31.897Z,21.20
2018-02-08T07:50:59.419Z,20.97
2018-02-08T07:53:26.933Z,21.63
2018-02-08T07:55:54.455Z,18.60
2018-02-08T07:58:22.735Z,21.37
2018-02-08T08:00:51.491Z,20.43
2018-02-08T08:03:18.995Z,19.90
2018-02-08T08:05:46.515Z,19.70
2018-02-08T08:08:14.026Z,19.83
2018-02-08T08:10:41.547Z,20.57
2018-02-08T08:13:09.055Z,19.90
2018-02-08T08:15:36.597Z,19.10
2018-02-08T08:18:04.101Z,19.93
2018-02-08T08:20:31.602Z,20.13
2018-02-08T08:22:59.887Z,17.60
2018-02-08T08:25:27.399Z,18.60
2018-02-08T08:27:54.921Z,18.10
2018-02-08T08:30:22.432Z,18.70
2018-02-08T08:32:49.991Z,20.23
2018-02-08T08:35:17.479Z,19.60
2018-02-08T08:37:45.767Z,19.10
2018-02-08T08:40:13.271Z,20.17
2018-02-08T08:42:40.790Z,19.50
2018-02-08T08:45:08.299Z,19.43
2018-02-08T08:47:35.823Z,18.60
2018-02-08T08:50:03.330Z,17.80
2018-02-08T08:52:30.850Z,18.30
2018-02-08T08:54:58.364Z,17.47
2018-02-08T08:57:27.250Z,19.07
2018-02-08T08:59:56.117Z,18.73
2018-02-08T09:02:25.006Z,18.60
2018-02-08T09:04:53.865Z,17.77
2018-02-08T09:07:22.718Z,20.03
2018-02-08T09:09:51.598Z,19.70
2018-02-08T09:12:20.479Z,19.27
2018-02-08T09:14:49.346Z,18.13
2018-02-08T09:17:18.203Z,17.60
2018-02-08T09:19:47.074Z,18.37
2018-02-08T09:22:15.939Z,17.77
2018-02-08T09:24:44.807Z,17.30
2018-02-08T09:27:13.671Z,16.97
2018-02-08T09:29:42.547Z,18.67
2018-02-08T09:32:11.398Z,18.03
2018-02-08T09:34:40.270Z,18.00
2018-02-08T09:37:09.122Z,17.73
2018-02-08T09:39:37.998Z,17.60
2018-02-08T09:42:06.851Z,17.07
2018-02-08T09:44:35.721Z,16.97
2018-02-08T09:47:04.579Z,18.07
2018-02-08T09:49:33.454Z,16.70
2018-02-08T09:52:02.302Z,17.70
2018-02-08T09:54:31.175Z,17.30
2018-02-08T09:57:00.058Z,16.60
2018-02-08T09:59:28.934Z,16.87
2018-02-08T10:01:57.790Z,17.20
2018-02-08T10:04:26.753Z,16.47
2018-02-08T10:06:55.627Z,16.30
2018-02-08T10:09:24.478Z,18.00
2018-02-08T10:11:53.406Z,17.73
2018-02-08T10:14:22.278Z,17.23
2018-02-08T10:16:51.147Z,15.30
2018-02-08T10:19:20.064Z,15.90
2018-02-08T10:21:48.953Z,16.80
2018-02-08T10:24:17.811Z,16.40
2018-02-08T10:26:46.781Z,16.57
2018-02-08T10:29:15.662Z,15.83
2018-02-08T10:31:44.535Z,15.53
2018-02-08T10:34:13.427Z,15.83
2018-02-08T10:36:42.305Z,15.80
2018-02-08T10:39:11.206Z,16.27
2018-02-08T10:41:40.110Z,15.40
2018-02-08T10:44:08.967Z,15.17
2018-02-08T10:46:37.846Z,15.07
2018-02-08T10:49:06.710Z,16.57
2018-02-08T10:51:35.630Z,18.40
2018-02-08T10:54:04.478Z,16.87
2018-02-08T10:56:33.346Z,15.93
2018-02-08T10:59:02.199Z,17.30
2018-02-08T11:01:31.094Z,15.93
2018-02-08T11:03:59.947Z,16.20
2018-02-08T11:06:28.811Z,16.20
2018-02-08T11:08:57.685Z,16.00
2018-02-08T11:11:26.538Z,16.30
2018-02-08T11:13:55.406Z,16.70
2018-02-08T11:16:24.259Z,14.93
2018-02-08T11:18:53.126Z,15.70
2018-02-08T11:21:21.979Z,16.53
2018-02-08T11:23:50.859Z,14.97
2018-02-08T11:26:19.758Z,16.53
2018-02-08T11:28:48.660Z,15.40
2018-02-08T11:31:18.347Z,15.10
2018-02-08T11:33:47.226Z,16.07
2018-02-08T11:36:16.083Z,15.90
2018-02-08T11:38:44.957Z,13.47
2018-02-08T11:41:13.807Z,15.70
2018-02-08T11:43:42.693Z,15.77
2018-02-08T11:46:11.543Z,15.23
2018-02-08T11:48:40.414Z,14.47
2018-02-08T11:51:09.279Z,13.50
2018-02-08T11:53:38.146Z,14.70
2018-02-08T11:56:07.006Z,14.50
2018-02-08T11:58:35.878Z,14.20
2018-02-08T12:01:04.742Z,15.30
2018-02-08T12:03:33.622Z,13.97
2018-02-08T12:06:02.478Z,15.60
2018-02-08T12:08:31.375Z,14.80
2018-02-08T12:11:00.230Z,14.37
2018-02-08T12:13:29.083Z,13.87
2018-02-08T12:15:57.958Z,13.83
2018-02-08T12:18:26.810Z,14.97
2018-02-08T12:20:55.674Z,14.83
2018-02-08T12:23:24.530Z,15.97
2018-02-08T12:25:53.397Z,14.53
2018-02-08T12:28:22.246Z,13.00
2018-02-08T12:30:51.120Z,12.60
2018-02-08T12:33:19.976Z,14.30
2018-02-08T12:35:48.845Z,13.93
2018-02-08T12:38:17.698Z,15.03
2018-02-08T12:40:46.568Z,13.07
2018-02-08T12:43:15.423Z,13.70
2018-02-08T12:45:44.341Z,13.57
2018-02-08T12:48:13.174Z,13.60
2018-02-08T12:50:42.042Z,14.60
2018-02-08T12:53:10.903Z,13.87
2018-02-08T12:55:39.774Z,12.83
2018-02-08T12:58:08.642Z,14.10
2018-02-08T13:00:37.519Z,11.33
2018-02-08T13:03:06.371Z,12.97
2018-02-08T13:05:35.249Z,12.83
2018-02-08T13:08:04.106Z,12.33
2018-02-08T13:10:33.814Z,12.90
2018-02-08T13:13:02.671Z,18.90
2018-02-08T13:15:31.521Z,23.40
2018-02-08T13:18:00.394Z,22.60
2018-02-08T13:20:29.248Z,24.63
2018-02-08T13:22:58.126Z,24.50
2018-02-08T13:25:26.990Z,22.93
2018-02-08T13:27:55.865Z,23.80
2018-02-08T13:30:24.725Z,23.63
2018-02-08T13:32:53.590Z,24.70
2018-02-08T13:35:22.450Z,24.03
2018-02-08T13:37:51.327Z,23.90
2018-02-08T13:40:21.970Z,23.13
2018-02-08T13:42:50.846Z,23.87
2018-02-08T13:45:25.338Z,23.40
2018-02-08T13:48:12.991Z,23.60
2018-02-08T13:51:00.635Z,23.93
2018-02-08T13:53:35.281Z,22.37
2018-02-08T13:56:09.907Z,25.07
2018-02-08T13:58:44.510Z,23.37
2018-02-08T14:01:17.310Z,23.60
2018-02-08T14:03:46.186Z,23.13
2018-02-08T14:06:15.042Z,23.13
2018-02-08T14:08:43.935Z,22.40
2018-02-08T14:11:12.791Z,23.20
2018-02-08T14:13:41.663Z,22.50
2018-02-08T14:16:10.521Z,22.87
2018-02-08T14:18:39.391Z,23.30
2018-02-08T14:21:08.247Z,23.80
2018-02-08T14:23:37.124Z,25.00
2018-02-08T14:26:05.978Z,21.53
2018-02-08T14:28:34.854Z,22.90
2018-02-08T14:31:03.710Z,21.67
2018-02-08T14:33:32.578Z,20.77
2018-02-08T14:36:01.433Z,23.07
2018-02-08T14:38:30.381Z,22.23
2018-02-08T14:40:59.246Z,23.00
2018-02-08T14:43:28.122Z,22.10
2018-02-08T14:45:56.989Z,21.17
2018-02-08T14:48:25.883Z,21.87
2018-02-08T14:50:54.742Z,21.20
2018-02-08T14:53:23.606Z,22.93
2018-02-08T14:55:52.475Z,22.50
2018-02-08T14:58:21.334Z,20.10
2018-02-08T15:00:50.225Z,23.87
2018-02-08T15:03:19.078Z,25.10
2018-02-08T15:05:47.948Z,23.57
2018-02-08T15:08:16.808Z,25.80
2018-02-08T15:10:45.679Z,24.93
2018-02-08T15:13:14.533Z,24.77
2018-02-08T15:15:43.418Z,24.93
2018-02-08T15:18:12.275Z,25.53
2018-02-08T15:20:41.174Z,25.50
2018-02-08T15:23:10.027Z,26.60
2018-02-08T15:25:38.920Z,29.73
2018-02-08T15:28:07.796Z,29.97
2018-02-08T15:30:36.687Z,30.73
2018-02-08T15:33:05.547Z,28.20
2018-02-08T15:35:34.454Z,28.50
2018-02-08T15:38:03.318Z,29.90
2018-02-08T15:40:32.207Z,27.77
2018-02-08T15:43:01.071Z,27.27
2018-02-08T15:45:29.936Z,25.47
2018-02-08T15:47:58.819Z,28.10
2018-02-08T15:50:27.689Z,26.67
2018-02-08T15:52:56.571Z,26.83
2018-02-08T15:55:25.422Z,29.80
2018-02-08T15:57:54.295Z,26.13
2018-02-08T16:00:23.160Z,29.07
2018-02-08T16:02:52.039Z,27.70
2018-02-08T16:05:20.895Z,27.17
2018-02-08T16:07:49.780Z,25.67
2018-02-08T16:10:18.642Z,26.93
2018-02-08T16:12:47.520Z,26.93
2018-02-08T16:15:16.387Z,24.77
2018-02-08T16:17:45.262Z,25.17
2018-02-08T16:20:14.124Z,28.03
2018-02-08T16:22:43.006Z,27.67
2018-02-08T16:25:11.862Z,24.27
2018-02-08T16:27:40.742Z,25.10
2018-02-08T16:30:09.647Z,25.50
2018-02-08T16:32:38.518Z,23.40
2018-02-08T16:35:07.375Z,23.60
2018-02-08T16:37:36.262Z,22.10
2018-02-08T16:40:05.132Z,21.80
2018-02-08T16:42:34.027Z,22.03
2018-02-08T16:45:02.896Z,23.57
2018-02-08T16:47:31.761Z,21.03
2018-02-08T16:50:00.653Z,21.50
2018-02-08T16:52:29.525Z,22.20
2018-02-08T16:54:58.410Z,21.40
2018-02-08T16:57:27.271Z,20.83
2018-02-08T16:59:56.142Z,20.37
2018-02-08T17:02:25.010Z,20.10
2018-02-08T17:04:53.879Z,20.03
2018-02-08T17:07:22.735Z,20.63
2018-02-08T17:09:51.622Z,20.00
2018-02-08T17:12:20.506Z,20.50
2018-02-08T17:14:49.374Z,20.47
2018-02-08T17:17:18.244Z,20.40
2018-02-08T17:19:47.122Z,20.07
2018-02-08T17:22:15.979Z,18.70
2018-02-08T17:24:44.858Z,20.37
2018-02-08T17:27:13.720Z,19.40
2018-02-08T17:29:42.599Z,19.43
2018-02-08T17:32:11.456Z,18.30
2018-02-08T17:34:40.331Z,19.70
2018-02-08T17:37:09.191Z,17.57
2018-02-08T17:39:38.082Z,18.67
2018-02-08T17:42:06.948Z,18.07
2018-02-08T17:44:35.827Z,17.67
2018-02-08T17:47:04.711Z,17.97
2018-02-08T17:49:33.605Z,17.23
2018-02-08T17:52:02.462Z,18.73
2018-02-08T17:54:31.318Z,16.70
2018-02-08T17:57:00.186Z,16.57
2018-02-08T17:59:29.055Z,18.07
2018-02-08T18:01:57.940Z,17.30
2018-02-08T18:04:26.802Z,17.30
2018-02-08T18:06:55.677Z,17.40
2018-02-08T18:09:24.532Z,16.60
2018-02-08T18:11:53.681Z,17.43
2018-02-08T18:14:22.578Z,18.30
2018-02-08T18:16:51.450Z,16.70
2018-02-08T18:19:20.327Z,17.53
2018-02-08T18:21:49.208Z,17.63
2018-02-08T18:24:18.066Z,17.27
2018-02-08T18:26:46.951Z,17.27
2018-02-08T18:29:15.807Z,16.70
2018-02-08T18:31:44.718Z,16.47
2018-02-08T18:34:13.562Z,16.80
2018-02-08T18:36:42.436Z,17.60
2018-02-08T18:39:11.291Z,14.83
2018-02-08T18:41:40.158Z,16.27
2018-02-08T18:44:09.031Z,16.33
2018-02-08T18:46:37.911Z,15.57
2018-02-08T18:49:06.771Z,15.90
2018-02-08T18:51:35.646Z,15.77
2018-02-08T18:54:04.500Z,16.90
2018-02-08T18:56:33.382Z,15.13
2018-02-08T18:59:02.253Z,17.13
2018-02-08T19:01:31.142Z,16.10
2018-02-08T19:04:00.002Z,17.17
2018-02-08T19:06:28.871Z,18.50
2018-02-08T19:08:57.742Z,16.80
2018-02-08T19:11:26.598Z,17.43
2018-02-08T19:13:55.465Z,16.53
2018-02-08T19:16:24.332Z,17.67
2018-02-08T19:18:53.210Z,17.60
2018-02-08T19:21:22.067Z,16.47
2018-02-08T19:23:50.939Z,17.37
2018-02-08T19:26:19.794Z,16.60
2018-02-08T19:28:48.670Z,17.00
2018-02-08T19:31:17.687Z,16.13
2018-02-08T19:33:46.636Z,18.13
2018-02-08T19:36:15.517Z,17.00
2018-02-08T19:38:44.406Z,18.10
2018-02-08T19:41:13.262Z,19.70
2018-02-08T19:43:42.172Z,19.23
2018-02-08T19:46:11.070Z,19.30
2018-02-08T19:48:39.952Z,19.40
2018-02-08T19:51:08.922Z,18.10
2018-02-08T19:53:37.841Z,18.17
2018-02-08T19:56:06.771Z,18.77
2018-02-08T19:58:35.866Z,18.10
2018-02-08T20:01:04.913Z,17.97
2018-02-08T20:03:34.233Z,18.13
2018-02-08T20:06:03.379Z,18.17
2018-02-08T20:08:33.461Z,19.23
2018-02-08T20:11:04.106Z,18.60
2018-02-08T20:13:33.261Z,18.97
2018-02-08T20:16:02.516Z,16.80
2018-02-08T20:18:31.394Z,18.37
2018-02-08T20:21:00.472Z,17.87
2018-02-08T20:23:29.463Z,18.33
2018-02-08T20:25:58.420Z,17.33
2018-02-08T20:28:27.411Z,18.50
2018-02-08T20:31:02.134Z,18.43
2018-02-08T20:33:31.103Z,18.40
2018-02-08T20:36:02.905Z,18.17
2018-02-08T20:38:32.111Z,19.70
2018-02-08T20:41:01.235Z,19.17
2018-02-08T20:43:31.121Z,17.03
2018-02-08T20:46:01.243Z,19.93
2018-02-08T20:48:31.220Z,19.00
2018-02-08T20:51:00.278Z,19.70
2018-02-08T20:53:29.250Z,19.10
2018-02-08T20:55:58.699Z,19.07
2018-02-08T20:58:27.683Z,20.20
2018-02-08T21:00:56.976Z,20.80
2018-02-08T21:03:26.048Z,19.00
2018-02-08T21:05:55.126Z,19.43
2018-02-08T21:08:24.382Z,19.87
2018-02-08T21:10:53.954Z,18.30
2018-02-08T21:13:22.810Z,19.80
2018-02-08T21:15:51.667Z,20.30
2018-02-08T21:18:20.670Z,19.20
2018-02-08T21:20:50.586Z,21.00
2018-02-08T21:23:19.759Z,20.93
2018-02-08T21:25:48.678Z,21.10
2018-02-08T21:28:17.933Z,19.17
2018-02-08T21:30:46.825Z,18.83
2018-02-08T21:33:15.789Z,20.40
2018-02-08T21:35:44.664Z,19.63
2018-02-08T21:38:13.550Z,18.80
2018-02-08T21:40:42.622Z,20.17
2018-02-08T21:43:11.600Z,21.30
2018-02-08T21:45:40.457Z,19.67
2018-02-08T21:48:09.334Z,20.17
2018-02-08T21:50:38.193Z,21.30
2018-02-08T21:53:07.070Z,21.27
2018-02-08T21:55:35.926Z,20.20
2018-02-08T21:58:04.808Z,20.60
2018-02-08T22:00:33.667Z,20.03
2018-02-08T22:03:02.538Z,22.60
2018-02-08T22:05:31.404Z,20.70
2018-02-08T22:08:00.265Z,20.60
2018-02-08T22:10:29.134Z,21.80
2018-02-08T22:12:57.994Z,20.00
2018-02-08T22:15:26.927Z,19.33
2018-02-08T22:17:55.782Z,20.50
2018-02-08T22:20:24.663Z,20.43
2018-02-08T22:22:53.530Z,20.67
2018-02-08T22:25:22.403Z,19.17
2018-02-08T22:27:51.254Z,20.73
2018-02-08T22:30:20.131Z,19.93
2018-02-08T22:32:48.991Z,21.63
2018-02-08T22:35:17.862Z,20.10
2018-02-08T22:37:46.722Z,20.27
2018-02-08T22:40:15.602Z,21.03
2018-02-08T22:42:44.462Z,20.70
2018-02-08T22:45:13.345Z,20.93
2018-02-08T22:47:42.204Z,21.03
2018-02-08T22:50:11.077Z,19.83
2018-02-08T22:52:39.945Z,20.27
2018-02-08T22:55:08.822Z,19.37
2018-02-08T22:57:37.687Z,19.80
2018-02-08T23:00:06.559Z,19.13
2018-02-08T23:02:35.414Z,19.33
2018-02-08T23:05:04.287Z,19.23
2018-02-08T23:07:33.143Z,20.43
2018-02-08T23:10:02.053Z,20.73
2018-02-08T23:12:30.956Z,20.20
2018-02-08T23:14:59.821Z,21.03
2018-02-08T23:17:28.693Z,21.00
2018-02-08T23:19:57.555Z,20.20
2018-02-08T23:22:26.428Z,20.17
2018-02-08T23:24:55.291Z,21.73
2018-02-08T23:27:24.166Z,18.50
2018-02-08T23:29:53.036Z,20.20
2018-02-08T23:32:21.911Z,22.43
2018-02-08T23:34:50.776Z,19.90
2018-02-08T23:37:19.650Z,19.33
2018-02-08T23:39:48.502Z,19.70
2018-02-08T23:42:17.374Z,19.67
2018-02-08T23:44:46.235Z,19.37
2018-02-08T23:47:15.116Z,19.10
2018-02-08T23:49:43.970Z,19.20
2018-02-08T23:52:12.853Z,19.57
2018-02-08T23:54:41.706Z,19.33
2018-02-08T23:57:10.588Z,20.43
2018-02-08T23:59:39.448Z,20.20
